Chichester, United Kingdom
Current Conditions -  °F | °C
As of 2:20 PM on Monday 20 Oct 2014 (Local Time) from EGKA Reporting Station
Scattered Clouds Scattered Clouds  
Wind Chill: 63°   Ceiling: Unl
Heat Index: 63°   Visibility: 6mi
Dew Point: 52°   Wind: 16mph
Humidity: 68%   Direction: 240°WSW
Pressure: 30"   Gusts: 28mph
Location:  50.84°N, 0.78°W
Report Text: EGKA 201320Z 24014G24KT 9999 SCT025 17/11 Q1016
Loading
Personal Weather Stations






























Interactive Weather Map
Tropical Storm Tracking
New forecast layout! Learn more

10-Day Weather Forecast

Advertisements
Track Severe Weather on mobile